sensor_id;sensor_type;location;lat;lon;timestamp;temperature;humidity
68480;DHT22;55469;48.934;12.050;2024-01-30T00:02:15;0.20;99.90
68480;DHT22;55469;48.934;12.050;2024-01-30T00:04:41;0.10;99.90
68480;DHT22;55469;48.934;12.050;2024-01-30T00:07:07;0.10;99.90
68480;DHT22;55469;48.934;12.050;2024-01-30T00:09:33;0.10;99.90
68480;DHT22;55469;48.934;12.050;2024-01-30T00:11:58;0.10;99.90
68480;DHT22;55469;48.934;12.050;2024-01-30T00:14:24;0.10;99.90
68480;DHT22;55469;48.934;12.050;2024-01-30T00:16:50;0.10;99.90
68480;DHT22;55469;48.934;12.050;2024-01-30T00:19:16;0.10;99.90
68480;DHT22;55469;48.934;12.050;2024-01-30T00:21:42;0.10;99.90
68480;DHT22;55469;48.934;12.050;2024-01-30T00:24:07;0.10;99.90
68480;DHT22;55469;48.934;12.050;2024-01-30T00:26:33;0.10;99.90
68480;DHT22;55469;48.934;12.050;2024-01-30T00:28:59;0.10;99.90
68480;DHT22;55469;48.934;12.050;2024-01-30T00:31:24;0.10;99.90
68480;DHT22;55469;48.934;12.050;2024-01-30T00:33:50;0.10;99.90
68480;DHT22;55469;48.934;12.050;2024-01-30T00:36:15;0.10;99.90
68480;DHT22;55469;48.934;12.050;2024-01-30T00:38:41;0.10;99.90
68480;DHT22;55469;48.934;12.050;2024-01-30T00:41:08;0.10;99.90
68480;DHT22;55469;48.934;12.050;2024-01-30T00:43:34;0.10;99.90
68480;DHT22;55469;48.934;12.050;2024-01-30T00:46:00;0.10;99.90
68480;DHT22;55469;48.934;12.050;2024-01-30T00:48:26;0.10;99.90
68480;DHT22;55469;48.934;12.050;2024-01-30T00:50:52;0.10;99.90
68480;DHT22;55469;48.934;12.050;2024-01-30T00:53:17;0.10;99.90
68480;DHT22;55469;48.934;12.050;2024-01-30T00:55:43;0.00;99.90
68480;DHT22;55469;48.934;12.050;2024-01-30T00:58:09;0.10;99.90
68480;DHT22;55469;48.934;12.050;2024-01-30T01:00:34;0.00;99.90
68480;DHT22;55469;48.934;12.050;2024-01-30T01:03:00;0.00;99.90
68480;DHT22;55469;48.934;12.050;2024-01-30T01:05:26;0.00;99.90
68480;DHT22;55469;48.934;12.050;2024-01-30T01:07:52;0.00;99.90
68480;DHT22;55469;48.934;12.050;2024-01-30T01:10:17;0.00;99.90
68480;DHT22;55469;48.934;12.050;2024-01-30T01:12:43;0.00;99.90
68480;DHT22;55469;48.934;12.050;2024-01-30T01:15:09;0.00;99.90
68480;DHT22;55469;48.934;12.050;2024-01-30T01:17:35;0.00;99.90
68480;DHT22;55469;48.934;12.050;2024-01-30T01:20:01;0.00;99.90
68480;DHT22;55469;48.934;12.050;2024-01-30T01:22:28;0.00;99.90
68480;DHT22;55469;48.934;12.050;2024-01-30T01:24:54;0.00;99.90
68480;DHT22;55469;48.934;12.050;2024-01-30T01:27:19;0.00;99.90
68480;DHT22;55469;48.934;12.050;2024-01-30T01:29:45;0.00;99.90
68480;DHT22;55469;48.934;12.050;2024-01-30T01:32:10;-0.10;99.90
68480;DHT22;55469;48.934;12.050;2024-01-30T01:34:36;-0.10;99.90
68480;DHT22;55469;48.934;12.050;2024-01-30T01:37:02;-0.10;99.90
68480;DHT22;55469;48.934;12.050;2024-01-30T01:39:27;-0.10;99.90
68480;DHT22;55469;48.934;12.050;2024-01-30T01:41:53;-0.10;99.90
68480;DHT22;55469;48.934;12.050;2024-01-30T01:44:19;-0.10;99.90
68480;DHT22;55469;48.934;12.050;2024-01-30T01:46:44;-0.10;99.90
68480;DHT22;55469;48.934;12.050;2024-01-30T01:49:10;-0.10;99.90
68480;DHT22;55469;48.934;12.050;2024-01-30T01:51:36;-0.10;99.90
68480;DHT22;55469;48.934;12.050;2024-01-30T01:54:03;-0.10;99.90
68480;DHT22;55469;48.934;12.050;2024-01-30T01:56:30;-0.10;99.90
68480;DHT22;55469;48.934;12.050;2024-01-30T01:58:58;-0.10;99.90
68480;DHT22;55469;48.934;12.050;2024-01-30T02:01:29;-0.10;99.90
68480;DHT22;55469;48.934;12.050;2024-01-30T02:03:56;-0.10;99.90
68480;DHT22;55469;48.934;12.050;2024-01-30T02:06:22;-0.20;99.90
68480;DHT22;55469;48.934;12.050;2024-01-30T02:08:48;-0.20;99.90
68480;DHT22;55469;48.934;12.050;2024-01-30T02:11:13;-0.20;99.90
68480;DHT22;55469;48.934;12.050;2024-01-30T02:13:40;-0.20;99.90
68480;DHT22;55469;48.934;12.050;2024-01-30T02:16:06;-0.20;99.90
68480;DHT22;55469;48.934;12.050;2024-01-30T02:18:31;-0.20;99.90
68480;DHT22;55469;48.934;12.050;2024-01-30T02:20:58;-0.20;99.90
68480;DHT22;55469;48.934;12.050;2024-01-30T02:23:27;-0.20;99.90
68480;DHT22;55469;48.934;12.050;2024-01-30T02:25:52;-0.20;99.90
68480;DHT22;55469;48.934;12.050;2024-01-30T02:28:19;-0.20;99.90
68480;DHT22;55469;48.934;12.050;2024-01-30T02:30:45;-0.20;99.90
68480;DHT22;55469;48.934;12.050;2024-01-30T02:33:14;-0.30;99.90
68480;DHT22;55469;48.934;12.050;2024-01-30T02:35:40;-0.20;99.90
68480;DHT22;55469;48.934;12.050;2024-01-30T02:38:06;-0.20;99.90
68480;DHT22;55469;48.934;12.050;2024-01-30T02:40:31;-0.30;99.90
68480;DHT22;55469;48.934;12.050;2024-01-30T02:43:00;-0.20;99.90
68480;DHT22;55469;48.934;12.050;2024-01-30T02:45:27;-0.30;99.90
68480;DHT22;55469;48.934;12.050;2024-01-30T02:47:52;-0.30;99.90
68480;DHT22;55469;48.934;12.050;2024-01-30T02:50:18;-0.30;99.90
68480;DHT22;55469;48.934;12.050;2024-01-30T02:52:43;-0.30;99.90
68480;DHT22;55469;48.934;12.050;2024-01-30T02:55:09;-0.30;99.90
68480;DHT22;55469;48.934;12.050;2024-01-30T02:57:35;-0.30;99.90
68480;DHT22;55469;48.934;12.050;2024-01-30T03:00:01;-0.30;99.90
68480;DHT22;55469;48.934;12.050;2024-01-30T03:02:26;-0.30;99.90
68480;DHT22;55469;48.934;12.050;2024-01-30T03:04:52;-0.30;99.90
68480;DHT22;55469;48.934;12.050;2024-01-30T03:07:18;-0.30;99.90
68480;DHT22;55469;48.934;12.050;2024-01-30T03:09:43;-0.30;99.90
68480;DHT22;55469;48.934;12.050;2024-01-30T03:12:09;-0.30;99.90
68480;DHT22;55469;48.934;12.050;2024-01-30T03:14:36;-0.30;99.90
68480;DHT22;55469;48.934;12.050;2024-01-30T03:17:01;-0.40;99.90
68480;DHT22;55469;48.934;12.050;2024-01-30T03:19:28;-0.40;99.90
68480;DHT22;55469;48.934;12.050;2024-01-30T03:21:53;-0.40;99.90
68480;DHT22;55469;48.934;12.050;2024-01-30T03:24:19;-0.40;99.90
68480;DHT22;55469;48.934;12.050;2024-01-30T03:26:44;-0.40;99.90
68480;DHT22;55469;48.934;12.050;2024-01-30T03:29:10;-0.40;99.90
68480;DHT22;55469;48.934;12.050;2024-01-30T03:31:36;-0.40;99.90
68480;DHT22;55469;48.934;12.050;2024-01-30T03:34:02;-0.40;99.90
68480;DHT22;55469;48.934;12.050;2024-01-30T03:36:28;-0.40;99.90
68480;DHT22;55469;48.934;12.050;2024-01-30T03:38:53;-0.40;99.90
68480;DHT22;55469;48.934;12.050;2024-01-30T03:41:19;-0.40;99.90
68480;DHT22;55469;48.934;12.050;2024-01-30T03:43:45;-0.40;99.90
68480;DHT22;55469;48.934;12.050;2024-01-30T03:46:12;-0.40;99.90
68480;DHT22;55469;48.934;12.050;2024-01-30T03:48:38;-0.40;99.90
68480;DHT22;55469;48.934;12.050;2024-01-30T03:51:04;-0.40;99.90
68480;DHT22;55469;48.934;12.050;2024-01-30T03:53:30;-0.40;99.90
68480;DHT22;55469;48.934;12.050;2024-01-30T03:55:55;-0.40;99.90
68480;DHT22;55469;48.934;12.050;2024-01-30T03:58:21;-0.40;99.90
68480;DHT22;55469;48.934;12.050;2024-01-30T04:00:47;-0.40;99.90
68480;DHT22;55469;48.934;12.050;2024-01-30T04:03:14;-0.40;99.90
68480;DHT22;55469;48.934;12.050;2024-01-30T04:05:40;-0.50;99.90
68480;DHT22;55469;48.934;12.050;2024-01-30T04:08:07;-0.50;99.90
68480;DHT22;55469;48.934;12.050;2024-01-30T04:10:33;-0.40;99.90
68480;DHT22;55469;48.934;12.050;2024-01-30T04:12:58;-0.50;99.90
68480;DHT22;55469;48.934;12.050;2024-01-30T04:15:25;-0.50;99.90
68480;DHT22;55469;48.934;12.050;2024-01-30T04:17:50;-0.50;99.90
68480;DHT22;55469;48.934;12.050;2024-01-30T04:20:16;-0.50;99.90
68480;DHT22;55469;48.934;12.050;2024-01-30T04:22:43;-0.50;99.90
68480;DHT22;55469;48.934;12.050;2024-01-30T04:25:09;-0.50;99.90
68480;DHT22;55469;48.934;12.050;2024-01-30T04:27:35;-0.50;99.90
68480;DHT22;55469;48.934;12.050;2024-01-30T04:30:01;-0.50;99.90
68480;DHT22;55469;48.934;12.050;2024-01-30T04:32:26;-0.50;99.90
68480;DHT22;55469;48.934;12.050;2024-01-30T04:34:52;-0.50;99.90
68480;DHT22;55469;48.934;12.050;2024-01-30T04:37:17;-0.50;99.90
68480;DHT22;55469;48.934;12.050;2024-01-30T04:39:43;-0.50;99.90
68480;DHT22;55469;48.934;12.050;2024-01-30T04:42:09;-0.50;99.90
68480;DHT22;55469;48.934;12.050;2024-01-30T04:44:34;-0.50;99.90
68480;DHT22;55469;48.934;12.050;2024-01-30T04:47:00;-0.50;99.90
68480;DHT22;55469;48.934;12.050;2024-01-30T04:49:27;-0.50;99.90
68480;DHT22;55469;48.934;12.050;2024-01-30T04:51:53;-0.50;99.90
68480;DHT22;55469;48.934;12.050;2024-01-30T04:54:18;-0.50;99.90
68480;DHT22;55469;48.934;12.050;2024-01-30T04:56:44;-0.50;99.90
68480;DHT22;55469;48.934;12.050;2024-01-30T04:59:09;-0.50;99.90
68480;DHT22;55469;48.934;12.050;2024-01-30T05:01:35;-0.50;99.90
68480;DHT22;55469;48.934;12.050;2024-01-30T05:04:01;-0.50;99.90
68480;DHT22;55469;48.934;12.050;2024-01-30T05:06:27;-0.50;99.90
68480;DHT22;55469;48.934;12.050;2024-01-30T05:08:53;-0.50;99.90
68480;DHT22;55469;48.934;12.050;2024-01-30T05:11:19;-0.50;99.90
68480;DHT22;55469;48.934;12.050;2024-01-30T05:13:44;-0.50;99.90
68480;DHT22;55469;48.934;12.050;2024-01-30T05:16:10;-0.60;99.90
68480;DHT22;55469;48.934;12.050;2024-01-30T05:18:36;-0.60;99.90
68480;DHT22;55469;48.934;12.050;2024-01-30T05:21:02;-0.60;99.90
68480;DHT22;55469;48.934;12.050;2024-01-30T05:23:28;-0.60;99.90
68480;DHT22;55469;48.934;12.050;2024-01-30T05:25:53;-0.60;99.90
68480;DHT22;55469;48.934;12.050;2024-01-30T05:28:19;-0.60;99.90
68480;DHT22;55469;48.934;12.050;2024-01-30T05:30:44;-0.60;99.90
68480;DHT22;55469;48.934;12.050;2024-01-30T05:33:10;-0.60;99.90
68480;DHT22;55469;48.934;12.050;2024-01-30T05:35:38;-0.60;99.90
68480;DHT22;55469;48.934;12.050;2024-01-30T05:38:04;-0.60;99.90
68480;DHT22;55469;48.934;12.050;2024-01-30T05:40:30;-0.60;99.90
68480;DHT22;55469;48.934;12.050;2024-01-30T05:42:56;-0.60;99.90
68480;DHT22;55469;48.934;12.050;2024-01-30T05:45:23;-0.60;99.90
68480;DHT22;55469;48.934;12.050;2024-01-30T05:47:49;-0.60;99.90
68480;DHT22;55469;48.934;12.050;2024-01-30T05:50:14;-0.60;99.90
68480;DHT22;55469;48.934;12.050;2024-01-30T05:52:40;-0.60;99.90
68480;DHT22;55469;48.934;12.050;2024-01-30T05:55:06;-0.60;99.90
68480;DHT22;55469;48.934;12.050;2024-01-30T05:57:32;-0.60;99.90
68480;DHT22;55469;48.934;12.050;2024-01-30T05:59:57;-0.60;99.90
68480;DHT22;55469;48.934;12.050;2024-01-30T06:02:23;-0.60;99.90
68480;DHT22;55469;48.934;12.050;2024-01-30T06:04:49;-0.60;99.90
68480;DHT22;55469;48.934;12.050;2024-01-30T06:07:14;-0.60;99.90
68480;DHT22;55469;48.934;12.050;2024-01-30T06:09:40;-0.60;99.90
68480;DHT22;55469;48.934;12.050;2024-01-30T06:12:06;-0.60;99.90
68480;DHT22;55469;48.934;12.050;2024-01-30T06:14:32;-0.60;99.90
68480;DHT22;55469;48.934;12.050;2024-01-30T06:16:58;-0.60;99.90
68480;DHT22;55469;48.934;12.050;2024-01-30T06:19:24;-0.60;99.90
68480;DHT22;55469;48.934;12.050;2024-01-30T06:21:50;-0.60;99.90
68480;DHT22;55469;48.934;12.050;2024-01-30T06:24:16;-0.60;99.90
68480;DHT22;55469;48.934;12.050;2024-01-30T06:26:42;-0.60;99.90
68480;DHT22;55469;48.934;12.050;2024-01-30T06:29:08;-0.60;99.90
68480;DHT22;55469;48.934;12.050;2024-01-30T06:35:00;-0.60;99.90
68480;DHT22;55469;48.934;12.050;2024-01-30T06:37:26;-0.60;99.90
68480;DHT22;55469;48.934;12.050;2024-01-30T06:39:51;-0.50;99.90
68480;DHT22;55469;48.934;12.050;2024-01-30T06:42:17;-0.50;99.90
68480;DHT22;55469;48.934;12.050;2024-01-30T06:44:43;-0.50;99.90
68480;DHT22;55469;48.934;12.050;2024-01-30T06:47:09;-0.60;99.90
68480;DHT22;55469;48.934;12.050;2024-01-30T06:49:35;-0.60;99.90
68480;DHT22;55469;48.934;12.050;2024-01-30T06:52:06;-0.60;99.90
68480;DHT22;55469;48.934;12.050;2024-01-30T06:54:32;-0.60;99.90
68480;DHT22;55469;48.934;12.050;2024-01-30T06:56:58;-0.60;99.90
68480;DHT22;55469;48.934;12.050;2024-01-30T06:59:24;-0.70;99.90
68480;DHT22;55469;48.934;12.050;2024-01-30T07:01:50;-0.70;99.90
68480;DHT22;55469;48.934;12.050;2024-01-30T07:04:15;-0.60;99.90
68480;DHT22;55469;48.934;12.050;2024-01-30T07:06:41;-0.60;99.90
68480;DHT22;55469;48.934;12.050;2024-01-30T07:09:07;-0.60;99.90
68480;DHT22;55469;48.934;12.050;2024-01-30T07:11:34;-0.60;99.90
68480;DHT22;55469;48.934;12.050;2024-01-30T07:13:59;-0.60;99.90
68480;DHT22;55469;48.934;12.050;2024-01-30T07:16:25;-0.60;99.90
68480;DHT22;55469;48.934;12.050;2024-01-30T07:18:51;-0.60;99.90
68480;DHT22;55469;48.934;12.050;2024-01-30T07:21:16;-0.60;99.90
68480;DHT22;55469;48.934;12.050;2024-01-30T07:23:42;-0.60;99.90
68480;DHT22;55469;48.934;12.050;2024-01-30T07:26:08;-0.60;99.90
68480;DHT22;55469;48.934;12.050;2024-01-30T07:28:34;-0.70;99.90
68480;DHT22;55469;48.934;12.050;2024-01-30T07:31:00;-0.70;99.90
68480;DHT22;55469;48.934;12.050;2024-01-30T07:33:26;-0.70;99.90
68480;DHT22;55469;48.934;12.050;2024-01-30T07:35:52;-0.70;99.90
68480;DHT22;55469;48.934;12.050;2024-01-30T07:38:19;-0.70;99.90
68480;DHT22;55469;48.934;12.050;2024-01-30T07:40:44;-0.60;99.90
68480;DHT22;55469;48.934;12.050;2024-01-30T07:43:10;-0.70;99.90
68480;DHT22;55469;48.934;12.050;2024-01-30T07:45:36;-0.70;99.90
68480;DHT22;55469;48.934;12.050;2024-01-30T07:48:03;-0.60;99.90
68480;DHT22;55469;48.934;12.050;2024-01-30T07:50:29;-0.60;99.90
68480;DHT22;55469;48.934;12.050;2024-01-30T07:52:55;-0.60;99.90
68480;DHT22;55469;48.934;12.050;2024-01-30T07:55:21;-0.60;99.90
68480;DHT22;55469;48.934;12.050;2024-01-30T07:57:52;-0.60;99.90
68480;DHT22;55469;48.934;12.050;2024-01-30T08:00:19;-0.60;99.90
68480;DHT22;55469;48.934;12.050;2024-01-30T08:02:45;-0.60;99.90
68480;DHT22;55469;48.934;12.050;2024-01-30T08:05:11;-0.60;99.90
68480;DHT22;55469;48.934;12.050;2024-01-30T08:07:37;-0.60;99.90
68480;DHT22;55469;48.934;12.050;2024-01-30T08:10:02;-0.60;99.90
68480;DHT22;55469;48.934;12.050;2024-01-30T08:12:29;-0.60;99.90
68480;DHT22;55469;48.934;12.050;2024-01-30T08:14:54;-0.60;99.90
68480;DHT22;55469;48.934;12.050;2024-01-30T08:17:20;-0.60;99.90
68480;DHT22;55469;48.934;12.050;2024-01-30T08:19:45;-0.60;99.90
68480;DHT22;55469;48.934;12.050;2024-01-30T08:22:11;-0.50;99.90
68480;DHT22;55469;48.934;12.050;2024-01-30T08:24:37;-0.50;99.90
68480;DHT22;55469;48.934;12.050;2024-01-30T08:27:03;-0.50;99.90
68480;DHT22;55469;48.934;12.050;2024-01-30T08:29:30;-0.50;99.90
68480;DHT22;55469;48.934;12.050;2024-01-30T08:31:56;-0.40;99.90
68480;DHT22;55469;48.934;12.050;2024-01-30T08:34:21;-0.40;99.90
68480;DHT22;55469;48.934;12.050;2024-01-30T08:36:47;-0.40;99.90
68480;DHT22;55469;48.934;12.050;2024-01-30T08:39:13;-0.30;99.90
68480;DHT22;55469;48.934;12.050;2024-01-30T08:41:39;-0.30;99.90
68480;DHT22;55469;48.934;12.050;2024-01-30T08:44:05;-0.40;99.90
68480;DHT22;55469;48.934;12.050;2024-01-30T08:46:31;-0.30;99.90
68480;DHT22;55469;48.934;12.050;2024-01-30T08:48:56;-0.30;99.90
68480;DHT22;55469;48.934;12.050;2024-01-30T08:51:22;-0.30;99.90
68480;DHT22;55469;48.934;12.050;2024-01-30T08:53:47;-0.30;99.90
68480;DHT22;55469;48.934;12.050;2024-01-30T08:56:13;-0.20;99.90
68480;DHT22;55469;48.934;12.050;2024-01-30T08:58:39;-0.20;99.90
68480;DHT22;55469;48.934;12.050;2024-01-30T09:01:04;-0.20;99.90
68480;DHT22;55469;48.934;12.050;2024-01-30T09:03:31;-0.20;99.90
68480;DHT22;55469;48.934;12.050;2024-01-30T09:05:56;-0.20;99.90
68480;DHT22;55469;48.934;12.050;2024-01-30T09:08:22;-0.10;99.90
68480;DHT22;55469;48.934;12.050;2024-01-30T09:10:48;-0.10;99.90
68480;DHT22;55469;48.934;12.050;2024-01-30T09:13:15;-0.20;99.90
68480;DHT22;55469;48.934;12.050;2024-01-30T09:15:41;-0.20;99.90
68480;DHT22;55469;48.934;12.050;2024-01-30T09:18:07;-0.10;99.90
68480;DHT22;55469;48.934;12.050;2024-01-30T09:20:32;-0.10;99.90
68480;DHT22;55469;48.934;12.050;2024-01-30T09:22:58;-0.10;99.90
68480;DHT22;55469;48.934;12.050;2024-01-30T09:25:24;-0.10;99.90
68480;DHT22;55469;48.934;12.050;2024-01-30T09:27:49;-0.10;99.90
68480;DHT22;55469;48.934;12.050;2024-01-30T09:30:15;-0.10;99.90
68480;DHT22;55469;48.934;12.050;2024-01-30T09:32:41;0.00;99.90
68480;DHT22;55469;48.934;12.050;2024-01-30T09:35:07;-0.10;99.90
68480;DHT22;55469;48.934;12.050;2024-01-30T09:37:33;0.00;99.90
68480;DHT22;55469;48.934;12.050;2024-01-30T09:39:58;0.00;99.90
68480;DHT22;55469;48.934;12.050;2024-01-30T09:44:50;0.00;99.90
68480;DHT22;55469;48.934;12.050;2024-01-30T09:47:16;0.00;99.90
68480;DHT22;55469;48.934;12.050;2024-01-30T09:49:43;0.00;99.90
68480;DHT22;55469;48.934;12.050;2024-01-30T09:52:09;0.00;99.90
68480;DHT22;55469;48.934;12.050;2024-01-30T09:54:36;0.00;99.90
68480;DHT22;55469;48.934;12.050;2024-01-30T09:57:01;0.10;99.90
68480;DHT22;55469;48.934;12.050;2024-01-30T09:59:27;0.10;99.90
68480;DHT22;55469;48.934;12.050;2024-01-30T10:01:53;0.10;99.90
68480;DHT22;55469;48.934;12.050;2024-01-30T10:04:18;0.00;99.90
68480;DHT22;55469;48.934;12.050;2024-01-30T10:06:44;0.00;99.90
68480;DHT22;55469;48.934;12.050;2024-01-30T10:09:10;0.00;99.90
68480;DHT22;55469;48.934;12.050;2024-01-30T10:11:36;0.10;99.90
68480;DHT22;55469;48.934;12.050;2024-01-30T10:14:02;0.10;99.90
68480;DHT22;55469;48.934;12.050;2024-01-30T10:16:27;0.10;99.90
68480;DHT22;55469;48.934;12.050;2024-01-30T10:18:53;0.10;99.90
68480;DHT22;55469;48.934;12.050;2024-01-30T10:21:19;0.10;99.90
68480;DHT22;55469;48.934;12.050;2024-01-30T10:23:45;0.10;99.90
68480;DHT22;55469;48.934;12.050;2024-01-30T10:26:10;0.10;99.90
68480;DHT22;55469;48.934;12.050;2024-01-30T10:28:36;0.10;99.90
68480;DHT22;55469;48.934;12.050;2024-01-30T10:31:02;0.10;99.90
68480;DHT22;55469;48.934;12.050;2024-01-30T10:33:30;0.10;99.90
68480;DHT22;55469;48.934;12.050;2024-01-30T10:35:58;0.10;99.90
68480;DHT22;55469;48.934;12.050;2024-01-30T10:38:28;0.10;99.90
68480;DHT22;55469;48.934;12.050;2024-01-30T10:40:56;0.20;99.90
68480;DHT22;55469;48.934;12.050;2024-01-30T10:43:22;0.20;99.90
68480;DHT22;55469;48.934;12.050;2024-01-30T10:45:49;0.10;99.90
68480;DHT22;55469;48.934;12.050;2024-01-30T10:48:15;0.20;99.90
68480;DHT22;55469;48.934;12.050;2024-01-30T10:50:42;0.20;99.90
68480;DHT22;55469;48.934;12.050;2024-01-30T10:53:08;0.20;99.90
68480;DHT22;55469;48.934;12.050;2024-01-30T10:55:35;0.20;99.90
68480;DHT22;55469;48.934;12.050;2024-01-30T10:58:02;0.20;99.90
68480;DHT22;55469;48.934;12.050;2024-01-30T11:00:27;0.20;99.90
68480;DHT22;55469;48.934;12.050;2024-01-30T11:02:53;0.20;99.90
68480;DHT22;55469;48.934;12.050;2024-01-30T11:05:25;0.20;99.90
68480;DHT22;55469;48.934;12.050;2024-01-30T11:07:52;0.30;99.90
68480;DHT22;55469;48.934;12.050;2024-01-30T11:10:18;0.30;99.90
68480;DHT22;55469;48.934;12.050;2024-01-30T11:12:45;0.30;99.90
68480;DHT22;55469;48.934;12.050;2024-01-30T11:15:17;0.30;99.90
68480;DHT22;55469;48.934;12.050;2024-01-30T11:17:44;0.30;99.90
68480;DHT22;55469;48.934;12.050;2024-01-30T11:20:18;0.30;99.90
68480;DHT22;55469;48.934;12.050;2024-01-30T11:22:46;0.30;99.90
68480;DHT22;55469;48.934;12.050;2024-01-30T11:25:15;0.30;99.90
68480;DHT22;55469;48.934;12.050;2024-01-30T11:27:42;0.40;99.90
68480;DHT22;55469;48.934;12.050;2024-01-30T11:30:08;0.40;99.90
68480;DHT22;55469;48.934;12.050;2024-01-30T11:32:34;0.40;99.90
68480;DHT22;55469;48.934;12.050;2024-01-30T11:35:00;0.40;99.90
68480;DHT22;55469;48.934;12.050;2024-01-30T11:37:30;0.40;99.90
68480;DHT22;55469;48.934;12.050;2024-01-30T11:39:56;0.40;99.90
68480;DHT22;55469;48.934;12.050;2024-01-30T11:42:23;0.40;99.90
68480;DHT22;55469;48.934;12.050;2024-01-30T11:44:50;0.50;99.90
68480;DHT22;55469;48.934;12.050;2024-01-30T11:47:16;0.50;99.90
68480;DHT22;55469;48.934;12.050;2024-01-30T11:49:42;0.50;99.90
68480;DHT22;55469;48.934;12.050;2024-01-30T11:52:09;0.50;99.90
68480;DHT22;55469;48.934;12.050;2024-01-30T11:54:35;0.50;99.90
68480;DHT22;55469;48.934;12.050;2024-01-30T11:57:00;0.50;99.90
68480;DHT22;55469;48.934;12.050;2024-01-30T11:59:26;0.50;99.90
68480;DHT22;55469;48.934;12.050;2024-01-30T12:01:52;0.60;99.90
68480;DHT22;55469;48.934;12.050;2024-01-30T12:04:17;0.60;99.90
68480;DHT22;55469;48.934;12.050;2024-01-30T12:06:43;0.60;99.90
68480;DHT22;55469;48.934;12.050;2024-01-30T12:09:09;0.60;99.90
68480;DHT22;55469;48.934;12.050;2024-01-30T12:11:46;0.60;99.90
68480;DHT22;55469;48.934;12.050;2024-01-30T12:14:12;0.60;99.90
68480;DHT22;55469;48.934;12.050;2024-01-30T12:16:38;0.60;99.90
68480;DHT22;55469;48.934;12.050;2024-01-30T12:19:04;0.60;99.90
68480;DHT22;55469;48.934;12.050;2024-01-30T12:21:30;0.60;99.90
68480;DHT22;55469;48.934;12.050;2024-01-30T12:23:56;0.60;99.90
68480;DHT22;55469;48.934;12.050;2024-01-30T12:26:23;0.60;99.90
68480;DHT22;55469;48.934;12.050;2024-01-30T12:28:49;0.60;99.90
68480;DHT22;55469;48.934;12.050;2024-01-30T12:31:15;0.60;99.90
68480;DHT22;55469;48.934;12.050;2024-01-30T12:33:41;0.60;99.90
68480;DHT22;55469;48.934;12.050;2024-01-30T12:36:07;0.60;99.90
68480;DHT22;55469;48.934;12.050;2024-01-30T12:38:32;0.60;99.90
68480;DHT22;55469;48.934;12.050;2024-01-30T12:40:58;0.70;99.90
68480;DHT22;55469;48.934;12.050;2024-01-30T12:43:24;0.70;99.90
68480;DHT22;55469;48.934;12.050;2024-01-30T12:45:50;0.70;99.90
68480;DHT22;55469;48.934;12.050;2024-01-30T12:48:18;0.70;99.90
68480;DHT22;55469;48.934;12.050;2024-01-30T12:50:43;0.60;99.90
68480;DHT22;55469;48.934;12.050;2024-01-30T12:53:09;0.70;99.90
68480;DHT22;55469;48.934;12.050;2024-01-30T12:55:35;0.70;99.90
68480;DHT22;55469;48.934;12.050;2024-01-30T12:58:00;0.70;99.90
68480;DHT22;55469;48.934;12.050;2024-01-30T13:00:26;0.70;99.90
68480;DHT22;55469;48.934;12.050;2024-01-30T13:02:52;0.70;99.90
68480;DHT22;55469;48.934;12.050;2024-01-30T13:05:18;0.70;99.90
68480;DHT22;55469;48.934;12.050;2024-01-30T13:07:43;0.70;99.90
68480;DHT22;55469;48.934;12.050;2024-01-30T13:10:09;0.70;99.90
68480;DHT22;55469;48.934;12.050;2024-01-30T13:12:35;0.70;99.90
68480;DHT22;55469;48.934;12.050;2024-01-30T13:15:01;0.70;99.90
68480;DHT22;55469;48.934;12.050;2024-01-30T13:17:27;0.70;99.90
68480;DHT22;55469;48.934;12.050;2024-01-30T13:19:53;0.70;99.90
68480;DHT22;55469;48.934;12.050;2024-01-30T13:22:19;0.70;99.90
68480;DHT22;55469;48.934;12.050;2024-01-30T13:24:48;0.70;99.90
68480;DHT22;55469;48.934;12.050;2024-01-30T13:27:13;0.70;99.90
68480;DHT22;55469;48.934;12.050;2024-01-30T13:29:39;0.70;99.90
68480;DHT22;55469;48.934;12.050;2024-01-30T13:32:05;0.80;99.90
68480;DHT22;55469;48.934;12.050;2024-01-30T13:34:31;0.70;99.90
68480;DHT22;55469;48.934;12.050;2024-01-30T13:36:56;0.80;99.90
68480;DHT22;55469;48.934;12.050;2024-01-30T13:39:22;0.80;99.90
68480;DHT22;55469;48.934;12.050;2024-01-30T13:41:48;0.80;99.90
68480;DHT22;55469;48.934;12.050;2024-01-30T13:44:15;0.80;99.90
68480;DHT22;55469;48.934;12.050;2024-01-30T13:46:41;0.80;99.90
68480;DHT22;55469;48.934;12.050;2024-01-30T13:49:07;0.80;99.90
68480;DHT22;55469;48.934;12.050;2024-01-30T13:51:33;0.80;99.90
68480;DHT22;55469;48.934;12.050;2024-01-30T13:53:58;0.80;99.90
68480;DHT22;55469;48.934;12.050;2024-01-30T13:56:24;0.80;99.90
68480;DHT22;55469;48.934;12.050;2024-01-30T13:58:52;0.80;99.90
68480;DHT22;55469;48.934;12.050;2024-01-30T14:01:18;0.80;99.90
68480;DHT22;55469;48.934;12.050;2024-01-30T14:03:43;0.80;99.90
68480;DHT22;55469;48.934;12.050;2024-01-30T14:06:09;0.90;99.90
68480;DHT22;55469;48.934;12.050;2024-01-30T14:08:35;0.90;99.90
68480;DHT22;55469;48.934;12.050;2024-01-30T14:11:01;0.90;99.90
68480;DHT22;55469;48.934;12.050;2024-01-30T14:13:27;0.90;99.90
68480;DHT22;55469;48.934;12.050;2024-01-30T14:15:52;0.90;99.90
68480;DHT22;55469;48.934;12.050;2024-01-30T14:18:18;0.90;99.90
68480;DHT22;55469;48.934;12.050;2024-01-30T14:20:44;0.90;99.90
68480;DHT22;55469;48.934;12.050;2024-01-30T14:23:09;0.90;99.90
68480;DHT22;55469;48.934;12.050;2024-01-30T14:25:35;0.90;99.90
68480;DHT22;55469;48.934;12.050;2024-01-30T14:28:01;0.90;99.90
68480;DHT22;55469;48.934;12.050;2024-01-30T14:30:26;0.90;99.90
68480;DHT22;55469;48.934;12.050;2024-01-30T14:32:52;0.90;99.90
68480;DHT22;55469;48.934;12.050;2024-01-30T14:35:17;0.90;99.90
68480;DHT22;55469;48.934;12.050;2024-01-30T14:37:44;0.90;99.90
68480;DHT22;55469;48.934;12.050;2024-01-30T14:40:10;0.90;99.90
68480;DHT22;55469;48.934;12.050;2024-01-30T14:42:36;0.90;99.90
68480;DHT22;55469;48.934;12.050;2024-01-30T14:45:05;0.90;99.90
68480;DHT22;55469;48.934;12.050;2024-01-30T14:47:31;1.00;99.90
68480;DHT22;55469;48.934;12.050;2024-01-30T14:49:57;1.00;99.90
68480;DHT22;55469;48.934;12.050;2024-01-30T14:52:23;1.00;99.90
68480;DHT22;55469;48.934;12.050;2024-01-30T14:54:49;1.00;99.90
68480;DHT22;55469;48.934;12.050;2024-01-30T14:57:14;0.90;99.90
68480;DHT22;55469;48.934;12.050;2024-01-30T14:59:40;0.90;99.90
68480;DHT22;55469;48.934;12.050;2024-01-30T15:02:06;0.90;99.90
68480;DHT22;55469;48.934;12.050;2024-01-30T15:04:31;0.90;99.90
68480;DHT22;55469;48.934;12.050;2024-01-30T15:06:57;1.00;99.90
68480;DHT22;55469;48.934;12.050;2024-01-30T15:09:23;1.00;99.90
68480;DHT22;55469;48.934;12.050;2024-01-30T15:11:49;1.00;99.90
68480;DHT22;55469;48.934;12.050;2024-01-30T15:14:15;1.00;99.90
68480;DHT22;55469;48.934;12.050;2024-01-30T15:16:41;1.00;99.90
68480;DHT22;55469;48.934;12.050;2024-01-30T15:19:06;1.00;99.90
68480;DHT22;55469;48.934;12.050;2024-01-30T15:21:33;1.00;99.90